Time;durP1;ratioP1;P1;durP2;ratioP2;P2;SDS_P1;SDS_P2;PMS_P1;PMS_P2;Temp;Humidity;BMP_temperature;BMP_pressure;BME280_temperature;BME280_humidity;BME280_pressure;Samples;Min_cycle;Max_cycle;Signal;HPM_P1;HPM_P2
2022/05/08 00:00:11;;;;;;;6.57;2.45;;;;;;;;;;5054823;28;20083;-82
2022/05/08 00:02:40;;;;;;;11.00;2.45;;;;;;;;;;5054994;28;20069;-82
2022/05/08 00:05:06;;;;;;;13.35;3.70;;;;;;;;;;5054705;28;20127;-82
2022/05/08 00:07:32;;;;;;;9.90;2.75;;;;;;;;;;5071313;28;20110;-82
2022/05/08 00:09:58;;;;;;;10.63;3.22;;;;;;;;;;5054769;28;20040;-82
2022/05/08 00:12:24;;;;;;;10.32;3.20;;;;;;;;;;5054842;28;20401;-82
2022/05/08 00:14:50;;;;;;;11.82;3.22;;;;;;;;;;5054573;28;20399;-82
2022/05/08 00:17:16;;;;;;;12.20;2.90;;;;;;;;;;5054117;28;20123;-82
2022/05/08 00:19:43;;;;;;;5.90;2.60;;;;;;;;;;5054360;28;20094;-83
2022/05/08 00:22:10;;;;;;;14.60;3.30;;;;;;;;;;5054370;28;20052;-82
2022/05/08 00:24:36;;;;;;;13.52;2.97;;;;;;;;;;5054741;28;20095;-82
2022/05/08 00:27:02;;;;;;;13.27;2.47;;;;;;;;;;5054425;28;20071;-82
2022/05/08 00:29:28;;;;;;;10.98;3.45;;;;;;;;;;5054278;28;20127;-82
2022/05/08 00:31:54;;;;;;;7.57;2.60;;;;;;;;;;5054145;28;20465;-82
2022/05/08 00:34:20;;;;;;;12.15;3.92;;;;;;;;;;5054529;28;20127;-82
2022/05/08 00:36:45;;;;;;;16.38;3.63;;;;;;;;;;5054195;28;20045;-82
2022/05/08 00:39:12;;;;;;;9.55;2.70;;;;;;;;;;5054016;28;20481;-82
2022/05/08 00:41:38;;;;;;;6.50;2.72;;;;;;;;;;5054079;28;20123;-82
2022/05/08 00:44:04;;;;;;;13.50;2.90;;;;;;;;;;5054244;28;20119;-82
2022/05/08 00:46:30;;;;;;;12.10;2.63;;;;;;;;;;5054318;28;20131;-82
2022/05/08 00:48:57;;;;;;;10.40;2.88;;;;;;;;;;5054158;28;20041;-82
2022/05/08 00:51:24;;;;;;;11.25;3.63;;;;;;;;;;5054410;28;20037;-82
2022/05/08 00:53:51;;;;;;;17.70;4.43;;;;;;;;;;5054225;28;20036;-82
2022/05/08 00:56:18;;;;;;;8.13;3.08;;;;;;;;;;5054033;28;20476;-82
2022/05/08 00:58:44;;;;;;;14.55;3.45;;;;;;;;;;5070278;28;20044;-82
2022/05/08 01:01:11;;;;;;;17.70;3.67;;;;;;;;;;5053723;28;20040;-82
2022/05/08 01:03:38;;;;;;;12.63;3.30;;;;;;;;;;5070363;28;20040;-82
2022/05/08 01:06:05;;;;;;;7.93;2.85;;;;;;;;;;5053578;28;20123;-82
2022/05/08 01:08:32;;;;;;;9.35;3.42;;;;;;;;;;5053512;28;20044;-81
2022/05/08 01:10:59;;;;;;;10.85;3.10;;;;;;;;;;5053606;28;20048;-82
2022/05/08 01:13:25;;;;;;;19.35;3.28;;;;;;;;;;5070731;28;20040;-82
2022/05/08 01:15:51;;;;;;;7.68;2.70;;;;;;;;;;5053530;28;20055;-82
2022/05/08 01:18:17;;;;;;;9.38;2.42;;;;;;;;;;5053483;28;20049;-83
2022/05/08 01:20:44;;;;;;;8.30;2.60;;;;;;;;;;5053689;28;20079;-83
2022/05/08 01:23:11;;;;;;;7.10;2.70;;;;;;;;;;5053520;28;20426;-83
2022/05/08 01:25:46;;;;;;;10.40;2.92;;;;;;;;;;5053497;28;20043;-84
2022/05/08 01:28:12;;;;;;;10.27;3.33;;;;;;;;;;5053838;28;20489;-82
2022/05/08 01:30:42;;;;;;;15.13;2.92;;;;;;;;;;5057682;28;20123;-83
2022/05/08 01:33:08;;;;;;;11.90;2.83;;;;;;;;;;5057659;28;20086;-83
2022/05/08 01:35:35;;;;;;;8.88;2.97;;;;;;;;;;5057660;28;20040;-83
2022/05/08 01:38:01;;;;;;;9.52;3.67;;;;;;;;;;5057354;28;20036;-82
2022/05/08 01:40:27;;;;;;;16.75;3.60;;;;;;;;;;5057626;28;20045;-83
2022/05/08 01:42:53;;;;;;;8.70;3.13;;;;;;;;;;5057307;28;20033;-82
2022/05/08 01:45:19;;;;;;;12.18;2.97;;;;;;;;;;5057597;28;20695;-83
2022/05/08 01:50:29;;;;;;;7.32;2.53;;;;;;;;;;5074300;28;20555;-82
2022/05/08 01:52:55;;;;;;;10.70;2.95;;;;;;;;;;5057273;28;20128;-82
2022/05/08 01:55:21;;;;;;;8.88;2.95;;;;;;;;;;5057432;28;20043;-82
2022/05/08 01:57:47;;;;;;;19.85;3.78;;;;;;;;;;5057066;28;20037;-82
2022/05/08 02:00:14;;;;;;;3.85;2.53;;;;;;;;;;5057170;28;20041;-82
2022/05/08 02:02:40;;;;;;;8.27;2.95;;;;;;;;;;5057047;28;20455;-82
2022/05/08 02:05:08;;;;;;;12.70;2.75;;;;;;;;;;5057263;28;20115;-82
2022/05/08 02:07:34;;;;;;;15.18;3.58;;;;;;;;;;5073545;28;20067;-82
2022/05/08 02:10:01;;;;;;;6.07;2.90;;;;;;;;;;5056877;28;20078;-82
2022/05/08 02:12:27;;;;;;;13.55;3.03;;;;;;;;;;5056794;28;20396;-82
2022/05/08 02:14:53;;;;;;;8.70;3.95;;;;;;;;;;5056903;28;20048;-81
2022/05/08 02:17:22;;;;;;;14.45;3.63;;;;;;;;;;5056801;28;20504;-82
2022/05/08 02:19:48;;;;;;;14.27;3.20;;;;;;;;;;5056774;28;20045;-82
2022/05/08 02:22:14;;;;;;;16.45;4.47;;;;;;;;;;5056744;28;20043;-82
2022/05/08 02:24:40;;;;;;;8.43;3.13;;;;;;;;;;5056974;28;20426;-82
2022/05/08 02:27:06;;;;;;;7.85;2.95;;;;;;;;;;5056817;28;20044;-82
2022/05/08 02:29:32;;;;;;;9.68;2.83;;;;;;;;;;5056579;28;20040;-81
2022/05/08 02:31:58;;;;;;;11.40;2.92;;;;;;;;;;5056653;28;20594;-82
2022/05/08 02:34:24;;;;;;;8.18;2.65;;;;;;;;;;5056728;28;20059;-81
2022/05/08 02:36:50;;;;;;;9.52;3.28;;;;;;;;;;5056544;28;20041;-82
2022/05/08 02:39:16;;;;;;;7.80;3.05;;;;;;;;;;5072731;28;20555;-81
2022/05/08 02:41:42;;;;;;;8.38;3.63;;;;;;;;;;5056329;28;20040;-81
2022/05/08 02:44:08;;;;;;;9.80;2.95;;;;;;;;;;5056368;28;20040;-81
2022/05/08 02:46:34;;;;;;;10.25;3.25;;;;;;;;;;5056421;28;20504;-81
2022/05/08 02:49:00;;;;;;;13.98;3.33;;;;;;;;;;5056374;28;20052;-81
2022/05/08 02:51:25;;;;;;;12.73;3.47;;;;;;;;;;5056108;28;20040;-82
2022/05/08 02:53:51;;;;;;;12.68;3.03;;;;;;;;;;5056284;28;20040;-82
2022/05/08 02:59:03;;;;;;;11.25;3.58;;;;;;;;;;5072648;28;20044;-82
2022/05/08 03:01:28;;;;;;;12.40;3.63;;;;;;;;;;5056183;28;20051;-82
2022/05/08 03:03:54;;;;;;;11.07;3.10;;;;;;;;;;5056063;28;20036;-82
2022/05/08 03:06:20;;;;;;;10.35;3.38;;;;;;;;;;5056151;28;20055;-81
2022/05/08 03:08:46;;;;;;;13.32;3.90;;;;;;;;;;5055881;28;20040;-82
2022/05/08 03:11:29;;;;;;;12.60;5.28;;;;;;;;;;5056157;28;20475;-82
2022/05/08 03:13:55;;;;;;;11.80;4.38;;;;;;;;;;5055159;28;20131;-82
2022/05/08 03:16:22;;;;;;;11.55;4.00;;;;;;;;;;5055153;28;20450;-82
2022/05/08 03:18:49;;;;;;;13.13;3.38;;;;;;;;;;5050910;28;20507;-82
2022/05/08 03:21:15;;;;;;;9.15;3.63;;;;;;;;;;5051571;28;20106;-82
2022/05/08 03:23:42;;;;;;;10.63;3.70;;;;;;;;;;5051155;28;20076;-82
2022/05/08 03:26:08;;;;;;;7.25;3.25;;;;;;;;;;5051526;28;20044;-82
2022/05/08 03:28:35;;;;;;;12.13;3.45;;;;;;;;;;5051489;28;20393;-82
2022/05/08 03:31:02;;;;;;;10.57;3.17;;;;;;;;;;5051877;28;20757;-82
2022/05/08 03:33:29;;;;;;;12.35;3.17;;;;;;;;;;5051629;28;20056;-82
2022/05/08 03:35:55;;;;;;;14.73;3.90;;;;;;;;;;5051186;28;20036;-82
2022/05/08 03:38:21;;;;;;;11.93;3.38;;;;;;;;;;5051396;28;20049;-82
2022/05/08 03:40:48;;;;;;;9.65;3.22;;;;;;;;;;5051474;28;20044;-82
2022/05/08 03:43:14;;;;;;;10.30;3.15;;;;;;;;;;5051148;28;20113;-82
2022/05/08 03:45:40;;;;;;;8.52;2.90;;;;;;;;;;5051401;28;20040;-82
2022/05/08 03:48:06;;;;;;;11.70;3.25;;;;;;;;;;5051021;28;20146;-82
2022/05/08 03:50:32;;;;;;;11.18;3.83;;;;;;;;;;5051129;28;20104;-82
2022/05/08 03:52:59;;;;;;;7.80;3.17;;;;;;;;;;5050352;28;20520;-82
2022/05/08 03:55:25;;;;;;;11.40;3.30;;;;;;;;;;5051220;28;20052;-82
2022/05/08 03:57:51;;;;;;;7.47;3.53;;;;;;;;;;5051937;28;20094;-82
2022/05/08 04:00:17;;;;;;;18.23;2.95;;;;;;;;;;5054358;28;20044;-81
2022/05/08 04:02:43;;;;;;;6.40;2.78;;;;;;;;;;5054242;28;20465;-81
2022/05/08 04:05:10;;;;;;;11.95;3.30;;;;;;;;;;5070723;28;20044;-82
2022/05/08 04:07:37;;;;;;;7.38;3.97;;;;;;;;;;5070719;28;20112;-82
2022/05/08 04:10:04;;;;;;;14.32;3.22;;;;;;;;;;5054290;28;20041;-82
2022/05/08 04:12:30;;;;;;;9.05;3.15;;;;;;;;;;5053840;28;20051;-81
2022/05/08 04:14:56;;;;;;;13.68;3.03;;;;;;;;;;5053963;28;20084;-81
2022/05/08 04:17:22;;;;;;;13.25;3.42;;;;;;;;;;5070672;28;20174;-81
2022/05/08 04:19:48;;;;;;;8.35;3.42;;;;;;;;;;5053904;28;20044;-81
2022/05/08 04:24:59;;;;;;;10.15;2.17;;;;;;;;;;5070260;28;20048;-82
2022/05/08 04:27:25;;;;;;;11.05;3.75;;;;;;;;;;5054480;28;20098;-81
2022/05/08 04:29:51;;;;;;;8.40;2.90;;;;;;;;;;5054192;28;20072;-82
2022/05/08 04:32:17;;;;;;;9.90;3.13;;;;;;;;;;5053935;28;20561;-82
2022/05/08 04:34:43;;;;;;;10.63;3.67;;;;;;;;;;5054098;28;20131;-82
2022/05/08 04:37:09;;;;;;;12.25;4.20;;;;;;;;;;5054387;28;20044;-82
2022/05/08 04:39:35;;;;;;;7.38;3.78;;;;;;;;;;5053948;28;20052;-82
2022/05/08 04:42:01;;;;;;;9.45;4.13;;;;;;;;;;5070561;28;20074;-82
2022/05/08 04:44:28;;;;;;;12.80;5.40;;;;;;;;;;5071059;28;20763;-81
2022/05/08 04:46:53;;;;;;;8.68;4.20;;;;;;;;;;5054278;28;20045;-82
2022/05/08 04:49:20;;;;;;;14.50;4.85;;;;;;;;;;5053840;28;20124;-82
2022/05/08 04:51:46;;;;;;;7.88;4.13;;;;;;;;;;5054127;28;20123;-82
2022/05/08 04:54:12;;;;;;;9.02;3.70;;;;;;;;;;5070292;28;20032;-82
2022/05/08 04:56:38;;;;;;;8.45;3.60;;;;;;;;;;5053841;28;20086;-81
2022/05/08 04:59:04;;;;;;;15.63;3.83;;;;;;;;;;5053657;28;20067;-81
2022/05/08 05:01:30;;;;;;;14.45;3.38;;;;;;;;;;5053661;28;20171;-81
2022/05/08 05:03:56;;;;;;;13.75;3.45;;;;;;;;;;5070599;28;20131;-81
2022/05/08 05:06:22;;;;;;;6.30;3.53;;;;;;;;;;5053581;28;20055;-81
2022/05/08 05:08:48;;;;;;;13.07;3.45;;;;;;;;;;5053519;28;20044;-81
2022/05/08 05:11:14;;;;;;;4.55;2.55;;;;;;;;;;5053828;28;20416;-81
2022/05/08 05:13:40;;;;;;;5.32;2.72;;;;;;;;;;5053939;28;20369;-81
2022/05/08 05:16:06;;;;;;;9.07;3.28;;;;;;;;;;5053415;28;20049;-81
2022/05/08 05:18:32;;;;;;;8.32;2.90;;;;;;;;;;5070204;28;20501;-81
2022/05/08 05:20:58;;;;;;;8.48;3.22;;;;;;;;;;5053738;28;20127;-81
2022/05/08 05:23:24;;;;;;;8.07;3.53;;;;;;;;;;5053380;28;20098;-81
2022/05/08 05:25:50;;;;;;;8.20;2.78;;;;;;;;;;5053660;28;20044;-81
2022/05/08 05:28:17;;;;;;;8.13;3.03;;;;;;;;;;5053429;28;20377;-82
2022/05/08 05:30:43;;;;;;;9.23;3.05;;;;;;;;;;5053661;28;20055;-82
2022/05/08 05:33:15;;;;;;;6.78;2.78;;;;;;;;;;5053304;28;20384;-82
2022/05/08 05:35:41;;;;;;;9.52;3.25;;;;;;;;;;5053566;28;20094;-81
2022/05/08 05:38:07;;;;;;;7.47;2.72;;;;;;;;;;5053194;28;20094;-81
2022/05/08 05:40:33;;;;;;;7.70;3.05;;;;;;;;;;5053787;28;20052;-81
2022/05/08 05:42:59;;;;;;;8.50;2.60;;;;;;;;;;5069924;28;20076;-82
2022/05/08 05:45:26;;;;;;;6.30;2.80;;;;;;;;;;5053595;28;20079;-81
2022/05/08 05:47:54;;;;;;;6.80;2.47;;;;;;;;;;5053500;28;20044;-81
2022/05/08 05:50:21;;;;;;;7.13;2.47;;;;;;;;;;5053062;28;20044;-82
2022/05/08 05:52:47;;;;;;;6.45;2.50;;;;;;;;;;5053220;28;20045;-82
2022/05/08 05:55:14;;;;;;;9.52;2.92;;;;;;;;;;5069790;28;20048;-82
2022/05/08 05:57:40;;;;;;;5.13;2.38;;;;;;;;;;5053160;28;20037;-82
2022/05/08 06:00:10;;;;;;;5.28;2.20;;;;;;;;;;5053456;28;20109;-82
2022/05/08 06:02:37;;;;;;;4.03;2.25;;;;;;;;;;5053488;28;20203;-81
2022/05/08 06:05:03;;;;;;;6.63;2.63;;;;;;;;;;5053052;28;20434;-82
2022/05/08 06:07:29;;;;;;;4.68;2.70;;;;;;;;;;5053471;28;20043;-81
2022/05/08 06:09:55;;;;;;;5.70;2.33;;;;;;;;;;5053130;28;20041;-81
2022/05/08 06:12:21;;;;;;;4.90;2.47;;;;;;;;;;5053119;28;20047;-81
2022/05/08 06:14:47;;;;;;;6.43;2.45;;;;;;;;;;5053929;28;20701;-81
2022/05/08 06:17:13;;;;;;;5.70;2.53;;;;;;;;;;5056710;28;20515;-82
2022/05/08 06:19:39;;;;;;;7.57;2.97;;;;;;;;;;5056967;28;20053;-82
2022/05/08 06:22:05;;;;;;;6.15;2.70;;;;;;;;;;5073610;28;20424;-80
2022/05/08 06:24:31;;;;;;;8.43;2.53;;;;;;;;;;5056631;28;20086;-81
2022/05/08 06:26:57;;;;;;;6.53;2.58;;;;;;;;;;5056694;28;20071;-81
2022/05/08 06:29:23;;;;;;;9.20;2.10;;;;;;;;;;5056859;28;20032;-81
2022/05/08 06:31:51;;;;;;;7.20;2.47;;;;;;;;;;5056535;28;20098;-80
2022/05/08 06:34:20;;;;;;;5.53;1.40;;;;;;;;;;5056892;28;20044;-82
2022/05/08 06:36:47;;;;;;;6.53;1.38;;;;;;;;;;5056688;28;20040;-84
2022/05/08 06:39:15;;;;;;;5.18;1.30;;;;;;;;;;5072975;28;20484;-83
2022/05/08 06:41:42;;;;;;;4.38;1.17;;;;;;;;;;5056475;28;20047;-83
2022/05/08 06:44:08;;;;;;;3.90;1.40;;;;;;;;;;5056480;28;20032;-85
2022/05/08 06:46:36;;;;;;;3.28;0.90;;;;;;;;;;5073977;28;20492;-86
2022/05/08 06:49:02;;;;;;;2.28;1.02;;;;;;;;;;5073598;28;20407;-87
2022/05/08 06:51:29;;;;;;;4.95;1.15;;;;;;;;;;5057994;28;20044;-84
2022/05/08 06:53:55;;;;;;;8.07;1.20;;;;;;;;;;5058244;28;20044;-86
2022/05/08 06:56:21;;;;;;;4.32;1.23;;;;;;;;;;5058580;28;20059;-86
2022/05/08 07:01:34;;;;;;;2.38;0.95;;;;;;;;;;5074467;28;20045;-81
2022/05/08 07:04:00;;;;;;;8.75;2.35;;;;;;;;;;5073495;28;20097;-81
2022/05/08 07:06:28;;;;;;;5.90;1.48;;;;;;;;;;5072943;28;20032;-86
2022/05/08 07:08:54;;;;;;;3.92;1.20;;;;;;;;;;5073054;28;20048;-83
2022/05/08 07:11:19;;;;;;;6.10;1.00;;;;;;;;;;5073377;28;20090;-81
2022/05/08 07:13:45;;;;;;;2.88;1.23;;;;;;;;;;5073267;28;20114;-84
2022/05/08 07:16:11;;;;;;;3.42;1.40;;;;;;;;;;5073370;28;20040;-84
2022/05/08 07:18:37;;;;;;;3.38;1.13;;;;;;;;;;5073889;28;20045;-85
2022/05/08 07:21:05;;;;;;;3.25;1.15;;;;;;;;;;5056696;28;20079;-80
2022/05/08 07:23:32;;;;;;;7.85;1.67;;;;;;;;;;5056292;28;20079;-83
2022/05/08 07:25:58;;;;;;;4.47;1.40;;;;;;;;;;5071646;28;20041;-83
2022/05/08 07:28:24;;;;;;;3.60;1.20;;;;;;;;;;5072314;28;20455;-80
2022/05/08 07:30:50;;;;;;;6.18;1.08;;;;;;;;;;5055429;28;20049;-80
2022/05/08 07:33:16;;;;;;;7.63;1.65;;;;;;;;;;5055766;28;20048;-82
2022/05/08 07:38:29;;;;;;;7.50;1.77;;;;;;;;;;5071595;28;20080;-82
2022/05/08 07:40:55;;;;;;;4.55;1.58;;;;;;;;;;5072329;28;20447;-80
2022/05/08 07:43:21;;;;;;;6.78;1.15;;;;;;;;;;5072417;28;20036;-82
2022/05/08 07:45:47;;;;;;;2.67;1.30;;;;;;;;;;5055297;28;20048;-80
2022/05/08 07:48:16;;;;;;;7.78;1.80;;;;;;;;;;5055235;28;20056;-80
2022/05/08 07:50:42;;;;;;;7.13;1.65;;;;;;;;;;5072114;28;20045;-86
2022/05/08 07:53:08;;;;;;;3.92;1.23;;;;;;;;;;5054922;28;20091;-82
2022/05/08 07:55:34;;;;;;;6.07;2.00;;;;;;;;;;5055151;28;20048;-86
2022/05/08 07:58:00;;;;;;;9.40;1.52;;;;;;;;;;5055203;28;20048;-80
2022/05/08 08:00:27;;;;;;;4.90;1.20;;;;;;;;;;5054979;28;20378;-82
2022/05/08 08:02:53;;;;;;;5.63;1.67;;;;;;;;;;5055190;28;20044;-85
2022/05/08 08:05:20;;;;;;;5.88;1.85;;;;;;;;;;5071738;28;20484;-86
2022/05/08 08:07:46;;;;;;;8.00;1.30;;;;;;;;;;5055048;28;20064;-80
2022/05/08 08:10:12;;;;;;;5.57;2.13;;;;;;;;;;5055011;28;20062;-85
2022/05/08 08:12:39;;;;;;;3.75;1.00;;;;;;;;;;5055141;28;20048;-85
2022/05/08 08:15:05;;;;;;;3.30;1.27;;;;;;;;;;5071768;28;20097;-80
2022/05/08 08:17:31;;;;;;;5.55;1.10;;;;;;;;;;5054562;28;20082;-82
2022/05/08 08:19:58;;;;;;;4.75;1.40;;;;;;;;;;5071215;28;20036;-79
2022/05/08 08:22:24;;;;;;;5.00;1.50;;;;;;;;;;5054710;28;20503;-83
2022/05/08 08:24:50;;;;;;;3.20;1.05;;;;;;;;;;5072001;28;20042;-84
2022/05/08 08:27:16;;;;;;;6.53;1.40;;;;;;;;;;5055282;28;20036;-85
2022/05/08 08:29:43;;;;;;;2.75;1.33;;;;;;;;;;5055102;28;20040;-83
2022/05/08 08:32:10;;;;;;;5.13;1.20;;;;;;;;;;5070951;28;20080;-83
2022/05/08 08:34:36;;;;;;;2.80;1.63;;;;;;;;;;5054145;28;20040;-82
2022/05/08 08:37:02;;;;;;;3.35;1.42;;;;;;;;;;5053866;28;20499;-82
2022/05/08 08:39:28;;;;;;;3.65;1.00;;;;;;;;;;5071055;28;20118;-80
2022/05/08 08:42:01;;;;;;;5.93;2.10;;;;;;;;;;5070869;28;20080;-83
2022/05/08 08:50:01;;;;;;;2.33;1.10;;;;;;;;;;5070598;28;20044;-81
2022/05/08 08:52:27;;;;;;;6.38;2.33;;;;;;;;;;5054772;28;20044;-83
2022/05/08 08:54:53;;;;;;;8.98;2.20;;;;;;;;;;5070933;28;20557;-84
2022/05/08 08:57:19;;;;;;;6.00;2.05;;;;;;;;;;5070838;28;20042;-81
2022/05/08 08:59:45;;;;;;;7.22;2.40;;;;;;;;;;5070747;28;20033;-84
2022/05/08 09:02:16;;;;;;;7.35;2.13;;;;;;;;;;5054136;28;20127;-82
2022/05/08 09:04:41;;;;;;;;;;;;;;;;;;5054308;28;20094;-81
2022/05/08 09:07:27;;;;;;;6.65;2.05;;;;;;;;;;5053607;28;19916;-82
2022/05/08 09:10:05;;;;;;;5.78;2.40;;;;;;;;;;5053800;28;20080;-84
2022/05/08 09:12:31;;;;;;;7.03;1.95;;;;;;;;;;5053815;28;20094;-81
2022/05/08 09:14:57;;;;;;;5.88;1.90;;;;;;;;;;5054911;28;20134;-88
2022/05/08 09:17:23;;;;;;;7.38;2.28;;;;;;;;;;5054173;28;20044;-83
2022/05/08 09:19:49;;;;;;;7.38;2.33;;;;;;;;;;5070398;28;20178;-79
2022/05/08 09:22:18;;;;;;;6.55;1.63;;;;;;;;;;5053998;28;20400;-85
2022/05/08 09:24:54;;;;;;;6.57;1.77;;;;;;;;;;5054089;28;20033;-84
2022/05/08 09:27:20;;;;;;;5.65;1.20;;;;;;;;;;5071156;28;20051;-81
2022/05/08 09:29:47;;;;;;;7.60;1.38;;;;;;;;;;5054869;28;20047;-80
2022/05/08 09:32:45;;;;;;;7.72;1.90;;;;;;;;;;5054638;28;20040;-80
2022/05/08 09:35:11;;;;;;;4.18;1.40;;;;;;;;;;5032699;28;20052;-81
2022/05/08 09:37:53;;;;;;;6.18;1.38;;;;;;;;;;5054405;28;20404;-85
2022/05/08 09:40:20;;;;;;;5.57;1.42;;;;;;;;;;5071005;28;20105;-84
2022/05/08 09:42:49;;;;;;;3.42;1.38;;;;;;;;;;5055279;28;20068;-80
2022/05/08 09:45:15;;;;;;;7.32;1.40;;;;;;;;;;5071460;28;20057;-81
2022/05/08 09:47:42;;;;;;;7.35;1.38;;;;;;;;;;5070711;28;20783;-86
2022/05/08 09:50:09;;;;;;;3.53;1.27;;;;;;;;;;5054482;28;20053;-82
2022/05/08 09:52:40;;;;;;;4.68;1.40;;;;;;;;;;5074041;28;20043;-85
2022/05/08 09:55:06;;;;;;;;;;;;;;;;;;5058546;28;20047;-82
2022/05/08 09:57:33;;;;;;;6.13;2.20;;;;;;;;;;5058390;28;19924;-85
2022/05/08 10:00:00;;;;;;;7.07;1.75;;;;;;;;;;5057757;28;20066;-81
2022/05/08 10:02:26;;;;;;;9.27;2.00;;;;;;;;;;5057001;28;20050;-82
2022/05/08 10:04:53;;;;;;;4.53;2.10;;;;;;;;;;5074094;28;20047;-81
2022/05/08 10:07:19;;;;;;;4.47;1.30;;;;;;;;;;5075417;28;20032;-83
2022/05/08 10:15:19;;;;;;;7.63;1.80;;;;;;;;;;5074590;28;20055;-83
2022/05/08 10:17:45;;;;;;;3.20;1.63;;;;;;;;;;5056944;28;20036;-85
2022/05/08 10:20:11;;;;;;;7.97;1.73;;;;;;;;;;5074334;28;20101;-83
2022/05/08 10:22:48;;;;;;;4.75;1.52;;;;;;;;;;5057808;28;20039;-87
2022/05/08 10:25:17;;;;;;;2.92;1.48;;;;;;;;;;5056571;28;20486;-86
2022/05/08 10:28:03;;;;;;;4.35;1.52;;;;;;;;;;5073807;28;20775;-82
2022/05/08 10:30:29;;;;;;;4.40;1.55;;;;;;;;;;5057312;28;20049;-85
2022/05/08 10:32:55;;;;;;;4.70;1.58;;;;;;;;;;5074028;28;20036;-83
2022/05/08 10:35:26;;;;;;;7.80;1.77;;;;;;;;;;5057136;28;20406;-84
2022/05/08 10:37:51;;;;;;;5.22;1.45;;;;;;;;;;5073254;28;20045;-84
2022/05/08 10:40:25;;;;;;;6.80;1.60;;;;;;;;;;5053496;28;20059;-83
2022/05/08 10:42:54;;;;;;;7.13;1.65;;;;;;;;;;5053198;28;20496;-83
2022/05/08 10:45:33;;;;;;;7.10;1.33;;;;;;;;;;5053173;28;20434;-82
2022/05/08 10:48:01;;;;;;;6.63;1.55;;;;;;;;;;5053294;28;20090;-81
2022/05/08 10:50:27;;;;;;;6.03;1.55;;;;;;;;;;5069802;28;20074;-83
2022/05/08 10:52:53;;;;;;;6.50;1.58;;;;;;;;;;5069916;28;20562;-82
2022/05/08 10:55:19;;;;;;;10.85;2.42;;;;;;;;;;5053161;28;20044;-82
2022/05/08 10:57:47;;;;;;;8.07;1.83;;;;;;;;;;5053724;28;20094;-85
2022/05/08 11:00:13;;;;;;;2.60;1.40;;;;;;;;;;5070195;28;20047;-80
2022/05/08 11:02:55;;;;;;;8.93;1.67;;;;;;;;;;5053543;28;20036;-84
2022/05/08 11:05:27;;;;;;;5.47;1.55;;;;;;;;;;5069808;28;20037;-81
2022/05/08 11:07:54;;;;;;;5.65;2.00;;;;;;;;;;5053024;28;20051;-82
2022/05/08 11:10:28;;;;;;;6.72;1.55;;;;;;;;;;5052524;28;20047;-82
2022/05/08 11:13:10;;;;;;;5.78;1.40;;;;;;;;;;5069621;28;20582;-82
2022/05/08 11:15:37;;;;;;;3.67;1.50;;;;;;;;;;5052517;28;20060;-80
2022/05/08 11:18:10;;;;;;;4.53;1.85;;;;;;;;;;5052603;28;20041;-81
2022/05/08 11:20:38;;;;;;;5.75;1.70;;;;;;;;;;5069713;28;20052;-80
2022/05/08 11:23:04;;;;;;;6.55;1.73;;;;;;;;;;5069006;28;20036;-84
2022/05/08 11:25:31;;;;;;;3.50;1.35;;;;;;;;;;5053045;28;20486;-83
2022/05/08 11:27:58;;;;;;;3.70;1.38;;;;;;;;;;5068693;28;20811;-84
2022/05/08 11:30:35;;;;;;;3.50;1.15;;;;;;;;;;5052401;28;20048;-82
2022/05/08 11:38:35;;;;;;;2.20;1.45;;;;;;;;;;5069141;28;20059;-82
2022/05/08 11:41:05;;;;;;;3.97;1.40;;;;;;;;;;5052015;28;20106;-83
2022/05/08 11:43:41;;;;;;;2.97;1.30;;;;;;;;;;5052430;28;20550;-80
2022/05/08 11:46:15;;;;;;;5.18;1.58;;;;;;;;;;5069093;28;20472;-82
2022/05/08 11:48:41;;;;;;;3.38;1.65;;;;;;;;;;5052247;28;20137;-81
2022/05/08 11:51:07;;;;;;;5.10;1.35;;;;;;;;;;5051984;28;20424;-86
2022/05/08 11:53:40;;;;;;;4.43;1.63;;;;;;;;;;5068834;28;20480;-81
2022/05/08 11:56:22;;;;;;;3.72;1.50;;;;;;;;;;5052112;28;20503;-82
2022/05/08 11:58:48;;;;;;;3.03;1.13;;;;;;;;;;5051363;28;20044;-80
2022/05/08 12:01:23;;;;;;;4.88;1.30;;;;;;;;;;5051416;28;20379;-79
2022/05/08 12:03:49;;;;;;;5.30;1.42;;;;;;;;;;5051331;28;20043;-80
2022/05/08 12:06:15;;;;;;;8.00;1.58;;;;;;;;;;5051570;28;20037;-81
2022/05/08 12:08:42;;;;;;;2.92;1.13;;;;;;;;;;5051596;28;20045;-80
2022/05/08 12:11:08;;;;;;;4.25;1.50;;;;;;;;;;5051247;28;20059;-81
2022/05/08 12:13:54;;;;;;;5.10;1.60;;;;;;;;;;5067164;28;20197;-82
2022/05/08 12:16:19;;;;;;;4.53;2.10;;;;;;;;;;5051239;28;20101;-80
2022/05/08 12:19:05;;;;;;;5.72;1.80;;;;;;;;;;5067742;28;20500;-81
2022/05/08 12:21:32;;;;;;;3.78;1.00;;;;;;;;;;5051801;28;20488;-79
2022/05/08 12:23:59;;;;;;;4.35;1.02;;;;;;;;;;5051096;28;20048;-81
2022/05/08 12:26:25;;;;;;;3.72;1.70;;;;;;;;;;5051240;28;20048;-83
2022/05/08 12:28:51;;;;;;;3.08;1.58;;;;;;;;;;5034747;28;20048;-84
2022/05/08 12:31:17;;;;;;;5.32;1.42;;;;;;;;;;5051419;28;20052;-84
2022/05/08 12:33:44;;;;;;;4.60;1.33;;;;;;;;;;5067470;28;20047;-80
2022/05/08 12:36:10;;;;;;;5.72;1.65;;;;;;;;;;5067390;28;20119;-78
2022/05/08 12:38:36;;;;;;;2.95;1.17;;;;;;;;;;5050106;28;20071;-80
2022/05/08 12:41:02;;;;;;;5.53;1.30;;;;;;;;;;5051112;28;20052;-84
2022/05/08 12:43:28;;;;;;;3.55;1.10;;;;;;;;;;5050803;28;20094;-81
2022/05/08 12:45:54;;;;;;;3.97;1.30;;;;;;;;;;5068078;28;20040;-83
2022/05/08 12:48:23;;;;;;;2.13;0.88;;;;;;;;;;5050602;28;20476;-86
2022/05/08 12:50:50;;;;;;;2.83;1.20;;;;;;;;;;5050383;28;20040;-85
2022/05/08 12:53:16;;;;;;;2.75;1.30;;;;;;;;;;5050272;28;20512;-80
2022/05/08 12:55:42;;;;;;;6.18;1.30;;;;;;;;;;5050487;28;20099;-83
2022/05/08 13:00:53;;;;;;;4.03;1.20;;;;;;;;;;5067321;28;20060;-81
2022/05/08 13:03:19;;;;;;;3.67;1.55;;;;;;;;;;5050553;28;20482;-83
2022/05/08 13:05:45;;;;;;;2.10;1.13;;;;;;;;;;5067188;28;20401;-87
2022/05/08 13:08:11;;;;;;;2.47;1.15;;;;;;;;;;5050519;28;20385;-84
2022/05/08 13:10:37;;;;;;;5.55;1.33;;;;;;;;;;5050464;28;20593;-83
2022/05/08 13:13:03;;;;;;;5.75;1.55;;;;;;;;;;5050832;28;20048;-77
2022/05/08 13:15:29;;;;;;;5.55;1.65;;;;;;;;;;5050252;28;20102;-85
2022/05/08 13:17:55;;;;;;;4.40;1.30;;;;;;;;;;5049815;28;20485;-83
2022/05/08 13:20:21;;;;;;;6.88;1.88;;;;;;;;;;5050080;28;20040;-83
2022/05/08 13:22:47;;;;;;;4.72;1.30;;;;;;;;;;5050516;28;20036;-83
2022/05/08 13:25:13;;;;;;;4.57;1.20;;;;;;;;;;5065968;28;20511;-83
2022/05/08 13:27:39;;;;;;;2.60;1.30;;;;;;;;;;5050117;28;20583;-83
2022/05/08 13:30:06;;;;;;;5.28;1.42;;;;;;;;;;5067212;28;20063;-83
2022/05/08 13:32:36;;;;;;;4.95;1.30;;;;;;;;;;5050891;28;20492;-84
2022/05/08 13:35:02;;;;;;;3.85;1.55;;;;;;;;;;5050282;28;20044;-83
2022/05/08 13:37:29;;;;;;;5.03;1.60;;;;;;;;;;5066765;28;20083;-84
2022/05/08 13:39:55;;;;;;;6.20;1.50;;;;;;;;;;5066689;28;20070;-82
2022/05/08 13:42:21;;;;;;;3.45;1.20;;;;;;;;;;5067958;28;20032;-83
2022/05/08 13:44:47;;;;;;;4.55;1.35;;;;;;;;;;5053047;28;20055;-81
2022/05/08 13:47:15;;;;;;;3.13;1.13;;;;;;;;;;5053067;28;20124;-83
2022/05/08 13:49:41;;;;;;;4.68;1.52;;;;;;;;;;5053367;28;20056;-85
2022/05/08 13:52:07;;;;;;;2.60;0.82;;;;;;;;;;5053806;28;20034;-81
2022/05/08 13:54:36;;;;;;;4.50;1.77;;;;;;;;;;5053040;28;20051;-82
2022/05/08 13:57:03;;;;;;;3.63;1.35;;;;;;;;;;5070405;28;20516;-84
2022/05/08 13:59:30;;;;;;;5.85;1.45;;;;;;;;;;5070567;28;20044;-82
2022/05/08 14:01:57;;;;;;;3.00;1.05;;;;;;;;;;5053406;28;20032;-84
2022/05/08 14:04:23;;;;;;;6.57;1.33;;;;;;;;;;5053102;28;20036;-84
2022/05/08 14:06:49;;;;;;;3.60;1.60;;;;;;;;;;5052837;28;20040;-81
2022/05/08 14:09:16;;;;;;;4.97;1.20;;;;;;;;;;5053085;28;20033;-85
2022/05/08 14:11:42;;;;;;;4.88;1.45;;;;;;;;;;5070152;28;20124;-80
2022/05/08 14:14:08;;;;;;;5.88;1.50;;;;;;;;;;5052912;28;20135;-83
2022/05/08 14:16:34;;;;;;;5.13;1.85;;;;;;;;;;5069544;28;20049;-85
2022/05/08 14:19:00;;;;;;;4.68;1.05;;;;;;;;;;5053226;28;20126;-82
2022/05/08 14:21:26;;;;;;;4.63;1.25;;;;;;;;;;5066954;28;20475;-81
2022/05/08 14:23:52;;;;;;;7.85;1.30;;;;;;;;;;5053112;28;20037;-85
2022/05/08 14:26:18;;;;;;;5.03;1.30;;;;;;;;;;5052742;28;20040;-80
2022/05/08 14:28:45;;;;;;;5.68;1.38;;;;;;;;;;5053453;28;20033;-86
2022/05/08 14:36:40;;;;;;;6.93;1.92;;;;;;;;;;5071184;28;20131;-83
2022/05/08 14:39:06;;;;;;;4.10;1.50;;;;;;;;;;5052973;28;20044;-83
2022/05/08 14:41:32;;;;;;;5.80;1.20;;;;;;;;;;5055759;28;20389;-77
2022/05/08 14:43:58;;;;;;;4.70;1.27;;;;;;;;;;5056390;28;20049;-82
2022/05/08 14:46:24;;;;;;;2.97;1.20;;;;;;;;;;5073452;28;20499;-81
2022/05/08 14:48:51;;;;;;;4.55;1.40;;;;;;;;;;5056097;28;20445;-82
2022/05/08 14:51:17;;;;;;;2.88;1.30;;;;;;;;;;5056317;28;20047;-85
2022/05/08 14:53:44;;;;;;;5.25;1.20;;;;;;;;;;5055977;28;20484;-80
2022/05/08 14:56:13;;;;;;;3.67;1.15;;;;;;;;;;5072710;28;20044;-85
2022/05/08 14:58:39;;;;;;;4.63;1.52;;;;;;;;;;5055834;28;20055;-83
2022/05/08 15:01:05;;;;;;;4.70;1.40;;;;;;;;;;5056477;28;20032;-80
2022/05/08 15:03:31;;;;;;;4.10;1.10;;;;;;;;;;5056047;28;20044;-81
2022/05/08 15:05:57;;;;;;;5.03;1.23;;;;;;;;;;5073580;28;20036;-80
2022/05/08 15:08:23;;;;;;;2.60;1.25;;;;;;;;;;5056647;28;20054;-84
2022/05/08 15:10:49;;;;;;;4.10;1.25;;;;;;;;;;5055921;28;20033;-83
2022/05/08 15:13:15;;;;;;;5.00;1.20;;;;;;;;;;5072290;28;20037;-78
2022/05/08 15:15:41;;;;;;;7.85;1.35;;;;;;;;;;5055658;28;20044;-86
2022/05/08 15:20:55;;;;;;;7.30;1.65;;;;;;;;;;5069249;28;20048;-79